Villas, New Jersey
Current Conditions -  °F | °C
As of 4:15 PM on Friday 24 Oct 2014 (Local Time) from KWWD Reporting Station
Clear Clear  
Wind Chill: 63°   Ceiling: Unl
Heat Index: 63°   Visibility: 10mi
Dew Point: 46°   Wind: 10mph
Humidity: 55%   Direction: 280°W
Pressure: 29.84"   Gusts: 20mph
Location:  39.03°N, 74.94°W
Report Text: KWWD 242015Z AUTO 28009G17KT 10SM CLR 17/08 A2984 RMK AO1
Loading
Personal Weather Stations






























Interactive Weather Map
Tropical Storm Tracking
New forecast layout! Learn more

10-Day Weather Forecast

Advertisements
Track Severe Weather on mobile